createdAt,value
2022-10-02T00:01:32.494Z,23.85
2022-10-02T00:04:02.449Z,23.90
2022-10-02T00:06:41.689Z,23.86
2022-10-02T00:09:15.769Z,23.84
2022-10-02T00:11:46.968Z,23.82
2022-10-02T00:14:17.276Z,23.81
2022-10-02T00:16:48.471Z,23.81
2022-10-02T00:19:18.748Z,23.83
2022-10-02T00:22:02.910Z,23.81
2022-10-02T00:24:38.525Z,23.80
2022-10-02T00:27:27.221Z,23.84
2022-10-02T00:29:57.750Z,23.82
2022-10-02T00:32:31.316Z,23.80
2022-10-02T00:35:24.334Z,23.76
2022-10-02T00:38:00.024Z,23.72
2022-10-02T00:40:43.253Z,23.75
2022-10-02T00:43:23.298Z,23.77
2022-10-02T00:46:22.952Z,23.82
2022-10-02T00:49:04.308Z,23.84
2022-10-02T00:51:52.292Z,23.88
2022-10-02T00:54:45.031Z,23.88
2022-10-02T00:57:22.366Z,23.85
2022-10-02T01:00:01.598Z,23.84
2022-10-02T01:02:50.676Z,23.86
2022-10-02T01:05:19.281Z,23.81
2022-10-02T01:07:52.221Z,23.80
2022-10-02T01:10:19.948Z,23.78
2022-10-02T01:12:47.160Z,23.77
2022-10-02T01:15:16.916Z,23.77
2022-10-02T01:17:46.633Z,23.80
2022-10-02T01:20:16.137Z,23.77
2022-10-02T01:22:54.108Z,23.76
2022-10-02T01:25:22.947Z,23.78
2022-10-02T01:27:52.515Z,23.77
2022-10-02T01:30:21.055Z,23.71
2022-10-02T01:32:50.437Z,23.72
2022-10-02T01:35:20.973Z,23.73
2022-10-02T01:37:51.103Z,23.80
2022-10-02T01:40:27.499Z,23.80
2022-10-02T01:42:58.635Z,23.75
2022-10-02T01:45:35.949Z,23.82
2022-10-02T01:48:12.558Z,23.80
2022-10-02T01:50:52.921Z,23.85
2022-10-02T01:53:28.772Z,23.81
2022-10-02T01:56:09.528Z,23.79
2022-10-02T01:58:45.077Z,23.77
2022-10-02T02:01:22.655Z,23.74
2022-10-02T02:03:59.036Z,23.77
2022-10-02T02:06:30.180Z,23.78
2022-10-02T02:09:06.572Z,23.77
2022-10-02T02:11:39.707Z,23.76
2022-10-02T02:14:12.769Z,23.75
2022-10-02T02:16:43.298Z,23.75
2022-10-02T02:19:18.773Z,23.72
2022-10-02T02:21:49.061Z,23.72
2022-10-02T02:24:23.572Z,23.71
2022-10-02T02:26:58.108Z,23.78
2022-10-02T02:29:29.547Z,23.77
2022-10-02T02:31:57.363Z,23.76
2022-10-02T02:34:31.211Z,23.76
2022-10-02T02:37:04.964Z,23.74
2022-10-02T02:39:37.141Z,23.77
2022-10-02T02:42:10.120Z,23.77
2022-10-02T02:44:41.872Z,23.77
2022-10-02T02:47:12.935Z,23.74
2022-10-02T02:49:49.446Z,23.76
2022-10-02T02:52:21.220Z,23.76
2022-10-02T02:54:53.088Z,23.74
2022-10-02T02:57:28.349Z,23.78
2022-10-02T02:59:57.942Z,23.73
2022-10-02T03:02:25.142Z,23.74
2022-10-02T03:04:52.360Z,23.74
2022-10-02T03:07:19.974Z,23.72
2022-10-02T03:09:56.797Z,23.71
2022-10-02T03:12:38.633Z,23.68
2022-10-02T03:15:21.352Z,23.64
2022-10-02T03:18:03.159Z,23.73
2022-10-02T03:20:36.703Z,23.75
2022-10-02T03:23:12.148Z,23.77
2022-10-02T03:25:44.743Z,23.80
2022-10-02T03:28:31.736Z,23.79
2022-10-02T03:31:05.549Z,23.81
2022-10-02T03:33:36.418Z,23.81
2022-10-02T03:36:04.701Z,23.78
2022-10-02T03:38:33.245Z,23.75
2022-10-02T03:41:00.400Z,23.72
2022-10-02T03:43:30.736Z,23.75
2022-10-02T03:45:57.949Z,23.71
2022-10-02T03:48:25.275Z,23.74
2022-10-02T03:50:52.536Z,23.72
2022-10-02T03:53:22.028Z,23.77
2022-10-02T03:55:55.202Z,23.74
2022-10-02T03:58:22.415Z,23.73
2022-10-02T04:00:58.743Z,23.72
2022-10-02T04:03:29.527Z,23.69
2022-10-02T04:06:00.981Z,23.69
2022-10-02T04:08:34.508Z,23.68
2022-10-02T04:11:08.435Z,23.69
2022-10-02T04:13:39.613Z,23.70
2022-10-02T04:16:14.824Z,23.70
2022-10-02T04:18:52.623Z,23.77
2022-10-02T04:21:31.272Z,23.74
2022-10-02T04:24:06.728Z,23.76
2022-10-02T04:26:37.590Z,23.73
2022-10-02T04:29:13.943Z,23.75
2022-10-02T04:31:42.569Z,23.77
2022-10-02T04:34:13.004Z,23.75
2022-10-02T04:36:47.869Z,23.77
2022-10-02T04:39:46.891Z,23.73
2022-10-02T04:42:27.591Z,23.75
2022-10-02T04:45:09.116Z,23.71
2022-10-02T04:47:56.558Z,23.80
2022-10-02T04:50:38.040Z,23.77
2022-10-02T04:53:21.536Z,23.71
2022-10-02T04:56:21.774Z,23.67
2022-10-02T04:59:01.487Z,23.65
2022-10-02T05:01:40.790Z,23.63
2022-10-02T05:04:47.236Z,23.63
2022-10-02T05:07:32.581Z,23.72
2022-10-02T05:10:10.274Z,23.74
2022-10-02T05:12:50.645Z,23.69
2022-10-02T05:15:33.529Z,23.74
2022-10-02T05:18:17.146Z,23.85
2022-10-02T05:21:07.333Z,23.88
2022-10-02T05:23:49.970Z,23.96
2022-10-02T05:26:50.351Z,23.94
2022-10-02T05:29:30.558Z,23.98
2022-10-02T05:32:16.016Z,23.98
2022-10-02T05:35:00.701Z,23.98
2022-10-02T05:37:47.453Z,23.98
2022-10-02T05:40:21.444Z,24.01
2022-10-02T05:42:57.667Z,24.00
2022-10-02T05:45:29.124Z,23.98
2022-10-02T05:48:08.218Z,24.01
2022-10-02T05:50:37.880Z,24.04
2022-10-02T05:53:14.149Z,24.00
2022-10-02T05:55:48.102Z,23.50
2022-10-02T05:58:23.155Z,23.12
2022-10-02T06:00:56.369Z,23.01
2022-10-02T06:03:31.068Z,23.28
2022-10-02T06:06:03.845Z,23.35
2022-10-02T06:08:36.811Z,23.37
2022-10-02T06:11:11.416Z,23.41
2022-10-02T06:13:45.598Z,23.42
2022-10-02T06:16:14.527Z,23.41
2022-10-02T06:18:46.748Z,23.45
2022-10-02T06:21:23.725Z,23.45
2022-10-02T06:23:56.352Z,23.45
2022-10-02T06:26:28.977Z,23.39
2022-10-02T06:29:01.335Z,23.41
2022-10-02T06:31:38.003Z,23.37
2022-10-02T06:34:10.759Z,23.40
2022-10-02T06:36:57.472Z,23.46
2022-10-02T06:39:36.819Z,23.47
2022-10-02T06:42:17.619Z,23.49
2022-10-02T06:44:53.657Z,23.51
2022-10-02T06:47:32.833Z,23.51
2022-10-02T06:50:16.561Z,23.54
2022-10-02T06:52:53.192Z,23.56
2022-10-02T06:55:40.363Z,23.61
2022-10-02T06:58:30.430Z,23.61
2022-10-02T07:01:08.015Z,23.64
2022-10-02T07:04:05.934Z,23.62
2022-10-02T07:06:45.612Z,23.68
2022-10-02T07:09:39.840Z,23.68
2022-10-02T07:12:26.375Z,23.69
2022-10-02T07:15:11.855Z,23.75
2022-10-02T07:17:50.756Z,23.76
2022-10-02T07:20:31.914Z,23.75
2022-10-02T07:23:32.896Z,23.73
2022-10-02T07:26:12.139Z,23.70
2022-10-02T07:28:46.470Z,23.73
2022-10-02T07:31:26.611Z,23.67
2022-10-02T07:34:08.235Z,23.76
2022-10-02T07:36:45.751Z,23.71
2022-10-02T07:39:26.840Z,23.77
2022-10-02T07:42:24.664Z,23.87
2022-10-02T07:45:30.601Z,23.90
2022-10-02T07:48:31.314Z,23.98
2022-10-02T07:51:22.137Z,23.99
2022-10-02T07:53:55.131Z,23.97
2022-10-02T07:56:23.513Z,23.97
2022-10-02T07:58:55.497Z,23.97
2022-10-02T08:01:26.939Z,23.98
2022-10-02T08:03:57.019Z,23.99
2022-10-02T08:06:24.171Z,24.02
2022-10-02T08:08:55.114Z,23.97
2022-10-02T08:11:27.201Z,24.05
2022-10-02T08:13:57.237Z,23.98
2022-10-02T08:16:30.667Z,23.94
2022-10-02T08:19:02.879Z,23.91
2022-10-02T08:21:35.876Z,23.96
2022-10-02T08:24:11.008Z,23.96
2022-10-02T08:26:43.479Z,23.98
2022-10-02T08:29:17.460Z,24.02
2022-10-02T08:31:46.372Z,24.10
2022-10-02T08:34:17.347Z,24.33
2022-10-02T08:37:02.443Z,24.34
2022-10-02T08:39:48.959Z,24.35
2022-10-02T08:42:55.743Z,24.22
2022-10-02T08:45:58.743Z,24.23
2022-10-02T08:49:10.285Z,24.24
2022-10-02T08:52:11.166Z,24.25
2022-10-02T08:55:00.420Z,24.26
2022-10-02T08:57:55.587Z,24.37
2022-10-02T09:00:25.229Z,24.30
2022-10-02T09:03:29.066Z,24.25
2022-10-02T09:06:28.668Z,24.18
2022-10-02T09:09:24.106Z,24.14
2022-10-02T09:12:33.259Z,24.24
2022-10-02T09:15:14.170Z,24.27
2022-10-02T09:18:10.144Z,24.23
2022-10-02T09:20:58.654Z,24.27
2022-10-02T09:23:56.118Z,24.25
2022-10-02T09:26:32.449Z,24.31
2022-10-02T09:29:41.677Z,24.66
2022-10-02T09:32:43.908Z,24.92
2022-10-02T09:35:40.105Z,25.19
2022-10-02T09:38:39.281Z,25.39
2022-10-02T09:41:56.982Z,25.31
2022-10-02T09:44:51.438Z,25.30
2022-10-02T09:48:04.064Z,25.23
2022-10-02T09:51:01.483Z,25.19
2022-10-02T09:53:59.588Z,25.13
2022-10-02T09:56:55.268Z,25.11
2022-10-02T10:00:09.774Z,25.02
2022-10-02T10:03:05.060Z,25.03
2022-10-02T10:06:06.434Z,24.98
2022-10-02T10:08:51.122Z,24.90
2022-10-02T10:11:45.736Z,24.94
2022-10-02T10:14:38.407Z,24.89
2022-10-02T10:17:29.103Z,24.89
2022-10-02T10:20:30.856Z,24.88
2022-10-02T10:23:20.728Z,24.83
2022-10-02T10:26:11.419Z,24.81
2022-10-02T10:29:16.369Z,24.79
2022-10-02T10:32:19.208Z,24.75
2022-10-02T10:35:09.917Z,24.74
2022-10-02T10:37:54.362Z,24.69
2022-10-02T10:40:27.284Z,24.64
2022-10-02T10:43:26.348Z,24.65
2022-10-02T10:46:27.916Z,24.58
2022-10-02T10:49:37.276Z,24.55
2022-10-02T10:52:17.052Z,24.57
2022-10-02T10:55:03.896Z,24.58
2022-10-02T10:57:47.157Z,24.58
2022-10-02T11:00:25.293Z,24.58
2022-10-02T11:03:23.728Z,24.58
2022-10-02T11:06:20.625Z,24.58
2022-10-02T11:09:23.294Z,24.56
2022-10-02T11:12:09.678Z,24.55
2022-10-02T11:14:49.762Z,24.54
2022-10-02T11:17:43.657Z,24.55
2022-10-02T11:20:26.821Z,24.53
2022-10-02T11:23:34.788Z,24.53
2022-10-02T11:26:16.551Z,24.50
2022-10-02T11:29:03.439Z,24.45
2022-10-02T11:31:53.386Z,24.45
2022-10-02T11:34:45.536Z,24.44
2022-10-02T11:37:30.595Z,24.45
2022-10-02T11:40:17.649Z,24.48
2022-10-02T11:43:00.461Z,24.49
2022-10-02T11:45:46.890Z,24.53
2022-10-02T11:48:38.528Z,24.52
2022-10-02T11:51:40.328Z,24.55
2022-10-02T11:54:37.814Z,24.53
2022-10-02T11:57:21.649Z,24.53
2022-10-02T12:00:03.447Z,24.52
2022-10-02T12:02:35.638Z,24.54
2022-10-02T12:05:19.129Z,24.53
2022-10-02T12:07:55.764Z,24.53
2022-10-02T12:10:40.140Z,24.52
2022-10-02T12:13:42.498Z,24.51
2022-10-02T12:16:20.657Z,24.46
2022-10-02T12:19:01.549Z,24.45
2022-10-02T12:21:45.279Z,24.48
2022-10-02T12:24:21.600Z,24.48
2022-10-02T12:26:58.395Z,24.47
2022-10-02T12:29:37.297Z,24.50
2022-10-02T12:32:14.687Z,24.52
2022-10-02T12:34:52.995Z,24.65
2022-10-02T12:37:28.372Z,24.71
2022-10-02T12:40:06.122Z,24.70
2022-10-02T12:43:02.302Z,24.69
2022-10-02T12:46:00.006Z,24.67
2022-10-02T12:48:39.367Z,24.70
2022-10-02T12:51:36.736Z,24.70
2022-10-02T12:54:46.797Z,24.70
2022-10-02T12:57:43.144Z,24.71
2022-10-02T13:00:13.707Z,24.73
2022-10-02T13:03:43.685Z,24.69
2022-10-02T13:06:40.734Z,24.67
2022-10-02T13:09:19.716Z,24.64
2022-10-02T13:12:01.218Z,24.63
2022-10-02T13:14:44.945Z,24.64
2022-10-02T13:17:26.305Z,24.61
2022-10-02T13:20:03.568Z,24.63
2022-10-02T13:22:42.553Z,24.64
2022-10-02T13:25:29.812Z,24.65
2022-10-02T13:28:09.736Z,24.67
2022-10-02T13:30:46.278Z,24.68
2022-10-02T13:33:26.031Z,24.66
2022-10-02T13:36:00.848Z,24.66
2022-10-02T13:38:49.207Z,24.67
2022-10-02T13:41:30.475Z,24.66
2022-10-02T13:44:10.794Z,24.68
2022-10-02T13:47:01.805Z,24.65
2022-10-02T13:49:41.795Z,24.64
2022-10-02T13:52:18.239Z,24.63
2022-10-02T13:54:58.828Z,24.61
2022-10-02T13:57:46.794Z,24.55
2022-10-02T14:00:23.703Z,24.59
2022-10-02T14:03:04.091Z,24.56
2022-10-02T14:05:41.718Z,24.64
2022-10-02T14:08:30.564Z,24.66
2022-10-02T14:11:08.653Z,24.69
2022-10-02T14:13:51.747Z,24.74
2022-10-02T14:16:35.589Z,24.79
2022-10-02T14:19:34.424Z,24.79
2022-10-02T14:22:19.184Z,24.86
2022-10-02T14:25:07.896Z,24.87
2022-10-02T14:28:08.155Z,24.94
2022-10-02T14:30:51.117Z,24.97
2022-10-02T14:33:29.137Z,24.95
2022-10-02T14:36:02.839Z,24.94
2022-10-02T14:38:50.186Z,25.02
2022-10-02T14:41:39.587Z,24.98
2022-10-02T14:44:24.421Z,24.98
2022-10-02T14:47:10.958Z,24.94
2022-10-02T14:50:10.515Z,24.96
2022-10-02T14:53:04.374Z,24.96
2022-10-02T14:55:51.960Z,24.93
2022-10-02T14:58:29.748Z,24.93
2022-10-02T15:01:21.303Z,24.94
2022-10-02T15:04:29.916Z,24.94
2022-10-02T15:07:02.336Z,25.05
2022-10-02T15:09:36.922Z,25.07
2022-10-02T15:12:15.284Z,25.04
2022-10-02T15:14:54.932Z,25.06
2022-10-02T15:17:34.859Z,25.01
2022-10-02T15:20:19.018Z,25.07
2022-10-02T15:22:54.356Z,25.05
2022-10-02T15:25:38.664Z,24.97
2022-10-02T15:28:35.305Z,25.00
2022-10-02T15:31:05.866Z,24.96
2022-10-02T15:33:42.301Z,24.95
2022-10-02T15:36:26.706Z,24.89
2022-10-02T15:39:13.913Z,25.02
2022-10-02T15:41:47.265Z,25.09
2022-10-02T15:44:32.754Z,25.09
2022-10-02T15:47:08.233Z,25.13
2022-10-02T15:49:54.392Z,25.13
2022-10-02T15:52:32.345Z,25.13
2022-10-02T15:55:17.259Z,25.15
2022-10-02T15:57:58.957Z,25.20
2022-10-02T16:00:27.227Z,25.20
2022-10-02T16:03:08.921Z,25.22
2022-10-02T16:06:06.835Z,25.07
2022-10-02T16:09:10.336Z,25.08
2022-10-02T16:11:56.256Z,25.08
2022-10-02T16:14:37.757Z,25.03
2022-10-02T16:17:21.672Z,25.07
2022-10-02T16:20:08.013Z,25.03
2022-10-02T16:22:56.121Z,24.81
2022-10-02T16:25:47.479Z,24.67
2022-10-02T16:28:28.277Z,24.51
2022-10-02T16:31:14.112Z,24.31
2022-10-02T16:33:54.876Z,24.32
2022-10-02T16:36:27.396Z,24.37
2022-10-02T16:39:08.804Z,24.40
2022-10-02T16:41:42.005Z,24.55
2022-10-02T16:44:25.805Z,24.71
2022-10-02T16:46:58.619Z,24.80
2022-10-02T16:49:33.414Z,24.83
2022-10-02T16:52:09.812Z,24.77
2022-10-02T16:54:44.827Z,24.72
2022-10-02T16:57:22.371Z,24.80
2022-10-02T16:59:59.907Z,24.77
2022-10-02T17:02:38.527Z,24.85
2022-10-02T17:05:16.209Z,24.85
2022-10-02T17:07:55.904Z,24.77
2022-10-02T17:10:36.635Z,24.77
2022-10-02T17:13:16.652Z,24.74
2022-10-02T17:15:49.546Z,24.77
2022-10-02T17:18:26.465Z,24.75
2022-10-02T17:20:56.397Z,24.84
2022-10-02T17:23:28.197Z,24.91
2022-10-02T17:26:04.505Z,24.95
2022-10-02T17:28:39.898Z,24.95
2022-10-02T17:31:40.369Z,25.02
2022-10-02T17:34:20.376Z,25.05
2022-10-02T17:36:53.689Z,25.01
2022-10-02T17:39:34.552Z,24.94
2022-10-02T17:42:13.122Z,24.91
2022-10-02T17:44:54.024Z,24.87
2022-10-02T17:47:56.454Z,24.86
2022-10-02T17:50:37.738Z,24.86
2022-10-02T17:53:18.100Z,24.87
2022-10-02T17:56:16.512Z,24.84
2022-10-02T17:58:56.239Z,24.87
2022-10-02T18:01:29.970Z,24.84
2022-10-02T18:04:10.942Z,24.80
2022-10-02T18:06:49.008Z,24.80
2022-10-02T18:09:28.513Z,24.79
2022-10-02T18:12:11.067Z,24.87
2022-10-02T18:15:11.741Z,25.02
2022-10-02T18:17:55.613Z,25.11
2022-10-02T18:20:32.468Z,25.10
2022-10-02T18:23:15.272Z,25.11
2022-10-02T18:26:04.468Z,25.15
2022-10-02T18:29:12.211Z,25.15
2022-10-02T18:31:56.910Z,25.12
2022-10-02T18:34:45.772Z,25.15
2022-10-02T18:37:26.957Z,25.03
2022-10-02T18:40:07.415Z,25.02
2022-10-02T18:42:47.937Z,24.99
2022-10-02T18:45:33.747Z,24.94
2022-10-02T18:48:19.681Z,24.94
2022-10-02T18:51:02.348Z,24.94
2022-10-02T18:53:43.899Z,24.98
2022-10-02T18:56:11.756Z,24.96
2022-10-02T18:58:50.825Z,24.95
2022-10-02T19:01:40.605Z,24.93
2022-10-02T19:04:28.616Z,24.96
2022-10-02T19:07:04.056Z,25.09
2022-10-02T19:09:31.805Z,25.18
2022-10-02T19:12:00.634Z,25.24
2022-10-02T19:14:34.817Z,25.27
2022-10-02T19:17:05.027Z,25.30
2022-10-02T19:19:33.546Z,25.28
2022-10-02T19:22:08.714Z,25.24
2022-10-02T19:24:39.565Z,25.28
2022-10-02T19:27:14.526Z,25.22
2022-10-02T19:29:46.291Z,25.13
2022-10-02T19:32:20.605Z,25.06
2022-10-02T19:34:57.176Z,25.07
2022-10-02T19:37:24.840Z,25.06
2022-10-02T19:39:55.960Z,25.02
2022-10-02T19:42:28.298Z,25.01
2022-10-02T19:44:59.401Z,25.02
2022-10-02T19:47:37.424Z,24.99
2022-10-02T19:50:17.307Z,24.99
2022-10-02T19:52:52.113Z,25.01
2022-10-02T19:55:22.370Z,24.99
2022-10-02T19:57:51.062Z,25.09
2022-10-02T20:00:20.004Z,25.23
2022-10-02T20:02:48.880Z,25.27
2022-10-02T20:05:21.585Z,25.33
2022-10-02T20:07:52.049Z,25.37
2022-10-02T20:10:25.109Z,25.38
2022-10-02T20:12:57.165Z,25.38
2022-10-02T20:15:29.656Z,25.31
2022-10-02T20:17:56.759Z,25.31
2022-10-02T20:20:25.261Z,25.21
2022-10-02T20:22:55.903Z,25.16
2022-10-02T20:25:27.015Z,25.14
2022-10-02T20:27:58.354Z,25.14
2022-10-02T20:30:32.425Z,25.10
2022-10-02T20:33:02.443Z,25.08
2022-10-02T20:35:36.078Z,25.12
2022-10-02T20:38:07.056Z,25.08
2022-10-02T20:40:35.816Z,25.05
2022-10-02T20:43:05.920Z,25.07
2022-10-02T20:45:39.578Z,25.06
2022-10-02T20:49:06.893Z,25.05
2022-10-02T20:51:52.350Z,25.15
2022-10-02T20:54:50.333Z,25.33
2022-10-02T20:58:01.221Z,25.38
2022-10-02T21:00:42.854Z,25.44
2022-10-02T21:03:30.793Z,25.44
2022-10-02T21:06:20.524Z,25.45
2022-10-02T21:09:17.689Z,25.39
2022-10-02T21:12:16.015Z,25.34
2022-10-02T21:15:04.602Z,25.24
2022-10-02T21:17:51.404Z,25.31
2022-10-02T21:20:51.606Z,25.29
2022-10-02T21:24:14.797Z,25.16
2022-10-02T21:27:11.477Z,25.14
2022-10-02T21:29:56.672Z,25.10
2022-10-02T21:32:41.003Z,25.05
2022-10-02T21:35:13.556Z,25.05
2022-10-02T21:37:55.109Z,25.01
2022-10-02T21:40:58.268Z,25.01
2022-10-02T21:44:00.690Z,24.94
2022-10-02T21:47:00.015Z,24.87
2022-10-02T21:50:11.398Z,24.86
2022-10-02T21:53:24.320Z,24.87
2022-10-02T21:56:27.580Z,24.81
2022-10-02T21:59:22.456Z,24.85
2022-10-02T22:02:25.530Z,24.84
2022-10-02T22:05:28.606Z,24.88
2022-10-02T22:08:05.582Z,24.92
2022-10-02T22:10:42.436Z,24.91
2022-10-02T22:13:20.605Z,24.91
2022-10-02T22:15:55.629Z,24.87
2022-10-02T22:18:29.743Z,24.87
2022-10-02T22:21:03.430Z,24.87
2022-10-02T22:23:51.528Z,24.88
2022-10-02T22:26:38.778Z,24.83
2022-10-02T22:29:11.848Z,24.83
2022-10-02T22:31:59.800Z,24.80
2022-10-02T22:34:45.343Z,24.73
2022-10-02T22:37:29.344Z,24.78
2022-10-02T22:40:02.463Z,24.79
2022-10-02T22:42:38.589Z,24.77
2022-10-02T22:45:15.056Z,24.80
2022-10-02T22:47:51.598Z,24.80
2022-10-02T22:50:28.754Z,24.81
2022-10-02T22:53:05.854Z,24.84
2022-10-02T22:55:38.575Z,24.86
2022-10-02T22:58:11.432Z,24.88
2022-10-02T23:00:55.317Z,24.82
2022-10-02T23:03:28.551Z,24.79
2022-10-02T23:06:02.227Z,24.79
2022-10-02T23:08:34.271Z,24.75
2022-10-02T23:11:10.548Z,24.74
2022-10-02T23:13:45.161Z,24.72
2022-10-02T23:16:20.200Z,24.73
2022-10-02T23:18:54.387Z,24.67
2022-10-02T23:21:30.251Z,24.65
2022-10-02T23:24:05.637Z,24.67
2022-10-02T23:26:37.236Z,24.62
2022-10-02T23:29:18.607Z,24.63
2022-10-02T23:31:53.999Z,24.67
2022-10-02T23:34:33.021Z,24.70
2022-10-02T23:37:10.971Z,24.68
2022-10-02T23:39:45.973Z,24.71
2022-10-02T23:42:19.221Z,24.69
2022-10-02T23:44:51.718Z,24.75
2022-10-02T23:47:27.036Z,24.70
2022-10-02T23:49:55.579Z,24.70
2022-10-02T23:53:02.350Z,24.70
2022-10-02T23:55:52.407Z,24.66
2022-10-02T23:58:39.337Z,24.64
